Terminal Aerodrome Forecast
Issued by NWS Wichita, KS

Home | Current Version | Previous Version | Graphics & Text | Print | Product List | Glossary On
Versions: 1 2 3 4 5 6 7 8 9 10 11 12 13 14
293
FTUS43 KICT 221138
TAFICT
TAF
KICT 221138Z 2212/2312 36013KT P6SM SCT050 OVC080
     FM221700 01017G22KT P6SM OVC080
     FM230000 33007KT P6SM SCT080=

USA.gov is the U.S. government's official web portal to all federal, state and local government web resources and services.